Terminal Aerodrome Forecast
Issued by NWS Twin Cities, MN

Home | Current Version | Previous Version | Text Only | Print | Product List | Glossary On
Versions: 1 2 3 4 5 6 7 8 9 10 11 12 13 14 15 16
000
FTUS43 KMPX 151100
TAFEAU
TAF
KEAU 151139Z 1512/1612 VRB03KT P6SM -RA SCT050 OVC070
     FM151700 31009KT P6SM BKN070
     FM152300 30005KT P6SM SKC
     FM160500 00000KT P6SM SKC=

USA.gov is the U.S. government's official web portal to all federal, state and local government web resources and services.